Time;durP1;ratioP1;P1;durP2;ratioP2;P2;SDS_P1;SDS_P2;PMS_P1;PMS_P2;Temp;Humidity;BMP_temperature;BMP_pressure;BME280_temperature;BME280_humidity;BME280_pressure;Samples;Min_cycle;Max_cycle;Signal;HPM_P1;HPM_P2
2022/03/24 00:01:48;;;;;;;31.17;14.97;;;;;;;8.55;41.02;95449.78;5093193;28;20193;-79
2022/03/24 00:04:16;;;;;;;24.07;13.60;;;;;;;8.59;41.14;95453.72;5093099;28;20201;-82
2022/03/24 00:06:42;;;;;;;29.60;15.70;;;;;;;8.58;41.13;95448.75;5093062;28;20186;-79
2022/03/24 00:09:09;;;;;;;28.17;13.90;;;;;;;8.58;41.10;95443.66;5092970;28;20185;-83
2022/03/24 00:11:38;;;;;;;28.77;14.20;;;;;;;8.57;41.11;95447.13;5093130;28;20224;-80
2022/03/24 00:14:05;;;;;;;24.00;12.83;;;;;;;8.56;41.07;95446.31;5093253;28;20215;-81
2022/03/24 00:16:31;;;;;;;25.27;13.37;;;;;;;8.56;41.32;95432.75;5092931;28;20277;-77
2022/03/24 00:18:59;;;;;;;29.10;13.30;;;;;;;8.52;41.52;95432.97;5092995;28;20185;-85
2022/03/24 00:21:27;;;;;;;26.63;12.70;;;;;;;8.52;41.69;95439.78;5092632;28;20190;-82
2022/03/24 00:23:54;;;;;;;21.23;12.23;;;;;;;8.49;41.54;95434.91;5091076;28;20703;-81
2022/03/24 00:26:21;;;;;;;23.33;12.87;;;;;;;8.47;41.79;95432.47;5093135;28;20656;-83
2022/03/24 00:28:48;;;;;;;23.60;11.63;;;;;;;8.48;41.65;95423.09;5093016;28;20193;-82
2022/03/24 00:31:15;;;;;;;20.03;11.63;;;;;;;8.47;41.69;95431.66;5093209;28;20293;-81
2022/03/24 00:33:42;;;;;;;22.27;12.37;;;;;;;8.46;41.68;95423.19;5092805;28;20217;-80
2022/03/24 00:36:11;;;;;;;22.20;10.83;;;;;;;8.39;41.61;95411.78;5092181;28;20580;-80
2022/03/24 00:38:39;;;;;;;16.53;10.27;;;;;;;8.44;41.67;95416.56;5090168;28;20217;-81
2022/03/24 00:41:06;;;;;;;21.97;10.53;;;;;;;8.42;41.85;95416.69;5092470;28;20687;-77
2022/03/24 00:43:33;;;;;;;21.03;10.33;;;;;;;8.40;41.87;95412.59;5092542;28;20190;-79
2022/03/24 00:46:00;;;;;;;22.33;10.73;;;;;;;8.41;41.96;95411.69;5092237;28;20225;-75
2022/03/24 00:48:27;;;;;;;19.90;10.50;;;;;;;8.36;42.01;95401.78;5091081;28;20292;-83
2022/03/24 00:50:54;;;;;;;21.73;10.67;;;;;;;8.35;42.08;95399.34;5092042;28;20189;-80
2022/03/24 00:53:21;;;;;;;24.97;11.93;;;;;;;8.32;42.13;95405.44;5092029;28;20186;-79
2022/03/24 00:55:49;;;;;;;22.20;10.87;;;;;;;8.23;42.35;95391.63;5092222;28;20198;-78
2022/03/24 00:58:16;;;;;;;18.97;10.77;;;;;;;8.28;42.23;95393.84;5092363;28;20193;-80
2022/03/24 01:00:43;;;;;;;30.30;12.37;;;;;;;8.18;42.45;95375.84;5091922;28;20251;-81
2022/03/24 01:03:10;;;;;;;18.70;11.40;;;;;;;8.27;42.47;95395.59;5092466;28;20193;-83
2022/03/24 01:05:37;;;;;;;24.30;11.50;;;;;;;8.27;42.37;95387.13;5092092;28;20276;-78
2022/03/24 01:08:08;;;;;;;24.37;12.63;;;;;;;8.26;42.16;95388.06;5091881;28;20198;-81
2022/03/24 01:10:35;;;;;;;22.23;12.07;;;;;;;8.26;42.51;95391.41;5092118;28;20205;-83
2022/03/24 01:13:04;;;;;;;21.50;11.97;;;;;;;8.23;42.61;95394.16;5089478;28;20229;-81
2022/03/24 01:15:31;;;;;;;20.97;12.53;;;;;;;8.23;42.75;95394.16;5091897;28;20194;-82
2022/03/24 01:17:59;;;;;;;24.60;11.90;;;;;;;8.20;42.80;95399.50;5091661;28;20193;-84
2022/03/24 01:20:28;;;;;;;20.37;12.83;;;;;;;8.20;42.88;95396.09;5091976;28;20190;-82
2022/03/24 01:22:54;;;;;;;26.13;13.13;;;;;;;8.16;42.99;95390.44;5091373;28;20229;-77
2022/03/24 01:25:23;;;;;;;23.80;12.10;;;;;;;8.09;42.88;95386.66;5092160;28;20574;-75
2022/03/24 01:27:51;;;;;;;24.60;12.30;;;;;;;8.17;42.98;95396.34;5092163;28;20186;-79
2022/03/24 01:30:19;;;;;;;23.97;12.80;;;;;;;8.13;43.29;95385.53;5092006;28;20641;-81
2022/03/24 01:32:47;;;;;;;23.53;11.83;;;;;;;8.10;43.08;95383.19;5091450;28;20256;-80
2022/03/24 01:35:15;;;;;;;25.83;10.77;;;;;;;8.09;43.16;95383.31;5092151;28;20196;-80
2022/03/24 01:37:42;;;;;;;25.87;13.27;;;;;;;8.08;43.22;95381.69;5091442;28;20193;-82
2022/03/24 01:40:11;;;;;;;17.63;11.30;;;;;;;7.97;43.24;95362.84;5091833;28;20190;-83
2022/03/24 01:42:43;;;;;;;23.27;11.73;;;;;;;8.03;43.32;95376.88;5091749;28;20197;-81
2022/03/24 01:45:10;;;;;;;21.10;11.77;;;;;;;8.01;43.40;95366.00;5091126;28;20193;-82
2022/03/24 01:47:39;;;;;;;23.90;14.03;;;;;;;7.99;43.58;95366.13;5091137;28;20193;-83
2022/03/24 01:50:09;;;;;;;25.87;12.57;;;;;;;7.96;43.69;95361.22;5091323;28;20531;-84
2022/03/24 01:52:36;;;;;;;28.67;13.47;;;;;;;7.95;43.64;95358.78;5091617;28;20213;-78
2022/03/24 01:55:25;;;;;;;21.63;12.67;;;;;;;7.95;43.52;95366.44;5092482;28;20186;-83
2022/03/24 01:57:52;;;;;;;26.47;12.57;;;;;;;7.93;43.70;95368.25;5094584;28;20190;-77
2022/03/24 02:00:20;;;;;;;26.83;12.70;;;;;;;7.91;43.70;95370.91;5102682;28;20193;-80
2022/03/24 02:02:50;;;;;;;23.40;12.83;;;;;;;7.90;43.86;95376.09;5096336;28;20288;-83
2022/03/24 02:05:16;;;;;;;29.87;13.00;;;;;;;7.88;43.95;95368.56;5096134;28;20194;-82
2022/03/24 02:07:43;;;;;;;24.03;12.63;;;;;;;7.86;43.93;95367.88;5090448;28;20190;-82
2022/03/24 02:10:11;;;;;;;22.27;12.53;;;;;;;7.84;43.97;95361.25;5090892;28;20243;-82
2022/03/24 02:12:38;;;;;;;25.83;13.37;;;;;;;7.83;44.17;95360.44;5090907;28;20703;-81
2022/03/24 02:15:06;;;;;;;25.60;13.03;;;;;;;7.79;44.11;95354.72;5090744;28;20266;-81
2022/03/24 02:17:34;;;;;;;21.13;11.40;;;;;;;7.78;44.22;95358.19;5090904;28;20194;-81
2022/03/24 02:20:02;;;;;;;23.20;12.53;;;;;;;7.74;44.26;95356.78;5090749;28;20243;-83
2022/03/24 02:22:30;;;;;;;21.63;12.20;;;;;;;7.76;44.21;95369.41;5090275;28;20303;-82
2022/03/24 02:24:57;;;;;;;20.27;12.10;;;;;;;7.75;44.29;95370.31;5090018;28;20241;-82
2022/03/24 02:27:25;;;;;;;20.07;13.10;;;;;;;7.73;44.49;95365.34;5090354;28;20208;-79
2022/03/24 02:29:52;;;;;;;24.87;13.57;;;;;;;7.72;44.34;95360.34;5089865;28;20556;-84
2022/03/24 02:32:21;;;;;;;25.00;13.80;;;;;;;7.72;44.21;95366.25;5090807;28;20233;-86
2022/03/24 02:34:48;;;;;;;23.50;12.37;;;;;;;7.71;44.41;95359.53;5090472;28;20192;-85
2022/03/24 02:37:17;;;;;;;26.10;14.03;;;;;;;7.70;44.49;95367.28;5090643;28;20193;-85
2022/03/24 02:39:47;;;;;;;23.07;13.93;;;;;;;7.66;44.40;95355.66;5090754;28;20194;-79
2022/03/24 02:42:16;;;;;;;28.53;15.40;;;;;;;7.63;44.60;95353.31;5090636;28;20204;-82
2022/03/24 02:44:45;;;;;;;30.47;16.10;;;;;;;7.58;44.56;95352.81;5090008;28;20293;-80
2022/03/24 02:47:12;;;;;;;29.90;14.10;;;;;;;7.60;44.61;95351.81;5090219;28;20189;-79
2022/03/24 02:49:41;;;;;;;35.40;15.57;;;;;;;7.52;44.53;95342.16;5090488;28;20177;-83
2022/03/24 02:52:09;;;;;;;30.27;16.37;;;;;;;7.53;44.51;95341.22;5089865;28;20900;-82
2022/03/24 02:54:37;;;;;;;30.80;16.63;;;;;;;7.53;44.54;95356.50;5090203;28;20272;-82
2022/03/24 02:57:06;;;;;;;30.47;17.07;;;;;;;7.50;44.75;95345.69;5090603;28;20182;-79
2022/03/24 02:59:34;;;;;;;35.07;16.80;;;;;;;7.47;44.56;95354.38;5098879;28;20188;-79
2022/03/24 03:02:02;;;;;;;31.43;17.13;;;;;;;7.49;44.57;95349.16;5101661;28;20189;-76
2022/03/24 03:04:31;;;;;;;31.87;17.63;;;;;;;7.48;44.64;95348.34;5102662;28;20190;-78
2022/03/24 03:06:58;;;;;;;41.57;19.87;;;;;;;7.47;44.60;95345.91;5100396;28;20189;-80
2022/03/24 03:09:26;;;;;;;32.67;17.23;;;;;;;7.44;44.68;95352.03;5090098;28;20227;-82
2022/03/24 03:11:53;;;;;;;40.80;19.27;;;;;;;7.41;44.67;95349.66;5089795;28;20711;-77
2022/03/24 03:14:21;;;;;;;40.10;18.80;;;;;;;7.40;44.79;95350.59;5089910;28;20657;-82
2022/03/24 03:16:49;;;;;;;31.17;19.23;;;;;;;7.37;44.85;95343.16;5090227;28;20273;-83
2022/03/24 03:19:19;;;;;;;39.57;18.77;;;;;;;7.38;44.75;95347.31;5090460;28;20185;-84
2022/03/24 03:21:47;;;;;;;32.47;18.33;;;;;;;7.35;44.93;95350.09;5090419;28;20668;-79
2022/03/24 03:24:14;;;;;;;33.07;18.67;;;;;;;7.33;45.00;95349.38;5090500;28;20316;-84
2022/03/24 03:26:41;;;;;;;38.17;20.30;;;;;;;7.34;44.99;95360.34;5091212;28;20202;-78
2022/03/24 03:29:10;;;;;;;39.60;19.13;;;;;;;7.32;44.92;95359.66;5092103;28;20185;-78
2022/03/24 03:31:39;;;;;;;37.93;20.17;;;;;;;7.28;45.04;95352.22;5090226;28;20280;-81
2022/03/24 03:34:07;;;;;;;36.50;20.10;;;;;;;7.24;44.95;95357.59;5089771;28;20190;-79
2022/03/24 03:36:34;;;;;;;35.33;20.53;;;;;;;7.25;45.01;95359.22;5089181;28;20197;-79
2022/03/24 03:39:01;;;;;;;41.63;19.77;;;;;;;7.24;45.23;95360.97;5089490;28;20197;-81
2022/03/24 03:41:28;;;;;;;32.70;18.77;;;;;;;7.22;45.26;95354.38;5089542;28;20212;-82
2022/03/24 03:43:56;;;;;;;40.57;19.43;;;;;;;7.21;44.96;95356.09;5089683;28;20197;-78
2022/03/24 03:46:23;;;;;;;35.73;18.73;;;;;;;7.20;45.25;95361.25;5089419;28;20221;-82
2022/03/24 03:48:51;;;;;;;36.27;19.07;;;;;;;7.19;45.40;95362.19;5089650;28;20186;-84
2022/03/24 03:51:18;;;;;;;34.53;19.47;;;;;;;7.16;45.33;95360.66;5089338;28;20195;-83
2022/03/24 03:53:45;;;;;;;34.63;18.77;;;;;;;7.10;45.31;95345.00;5089240;28;20213;-78
2022/03/24 03:56:12;;;;;;;51.10;19.50;;;;;;;7.15;45.51;95355.66;5089621;28;20628;-82
2022/03/24 03:58:40;;;;;;;32.80;18.10;;;;;;;7.14;45.53;95354.84;5089824;28;20193;-84
2022/03/24 04:01:08;;;;;;;31.30;17.83;;;;;;;7.12;45.61;95354.13;5089572;28;20271;-82
2022/03/24 04:03:37;;;;;;;31.13;17.87;;;;;;;7.10;45.62;95347.53;5089615;28;20197;-81
2022/03/24 04:06:07;;;;;;;31.73;17.87;;;;;;;7.10;45.62;95348.34;5089297;28;20687;-78
2022/03/24 04:08:35;;;;;;;35.67;18.03;;;;;;;7.08;45.83;95357.81;5089033;28;20284;-77
2022/03/24 04:11:02;;;;;;;36.07;18.50;;;;;;;7.07;45.70;95350.25;5089545;28;20277;-81
2022/03/24 04:13:29;;;;;;;35.03;18.63;;;;;;;7.05;45.71;95352.91;5091692;28;20221;-75
2022/03/24 04:15:56;;;;;;;35.60;17.50;;;;;;;7.04;45.64;95348.75;5093206;28;20194;-82
2022/03/24 04:18:23;;;;;;;35.07;18.27;;;;;;;7.03;45.96;95350.47;5092734;28;20689;-79
2022/03/24 04:20:50;;;;;;;37.07;17.63;;;;;;;6.96;45.94;95340.81;5092623;28;20189;-80
2022/03/24 04:23:19;;;;;;;29.37;17.07;;;;;;;7.00;46.04;95355.75;5092241;28;20237;-80
2022/03/24 04:25:46;;;;;;;29.00;17.70;;;;;;;7.00;46.07;95348.13;5092212;28;20209;-80
2022/03/24 04:28:15;;;;;;;30.43;17.27;;;;;;;7.03;45.86;95349.66;5092086;28;20274;-79
2022/03/24 04:30:44;;;;;;;30.27;18.03;;;;;;;7.04;46.06;95358.94;5092936;28;20277;-80
2022/03/24 04:33:11;;;;;;;27.97;17.83;;;;;;;7.03;46.19;95347.91;5092377;28;20256;-81
2022/03/24 04:35:38;;;;;;;33.60;17.20;;;;;;;7.03;46.22;95350.47;5091789;28;20341;-78
2022/03/24 04:38:07;;;;;;;30.27;17.73;;;;;;;7.04;46.23;95356.38;5092362;28;20178;-82
2022/03/24 04:40:35;;;;;;;42.97;23.07;;;;;;;7.07;46.16;95356.16;5092336;28;20192;-82
2022/03/24 04:43:02;;;;;;;40.60;23.47;;;;;;;7.09;46.43;95356.91;5092364;28;20201;-82
2022/03/24 04:45:32;;;;;;;37.13;21.57;;;;;;;7.10;46.50;95353.44;5092255;28;20227;-86
2022/03/24 04:48:00;;;;;;;36.63;22.73;;;;;;;7.16;46.40;95360.66;5092254;28;20190;-77
2022/03/24 04:50:27;;;;;;;38.80;20.83;;;;;;;7.20;46.36;95362.06;5091888;28;20189;-83
2022/03/24 04:52:54;;;;;;;35.70;19.80;;;;;;;7.26;46.21;95364.22;5092096;28;20284;-81
2022/03/24 04:55:21;;;;;;;37.83;20.43;;;;;;;7.28;46.24;95364.94;5091778;28;20584;-84
2022/03/24 04:57:49;;;;;;;31.90;20.13;;;;;;;7.39;46.19;95368.53;5092305;28;20182;-77
2022/03/24 05:00:18;;;;;;;33.33;17.47;;;;;;;7.40;45.99;95365.84;5092326;28;20263;-83
2022/03/24 05:02:45;;;;;;;33.57;19.13;;;;;;;7.54;46.05;95368.28;5091863;28;20231;-76
2022/03/24 05:05:12;;;;;;;34.67;18.80;;;;;;;7.66;45.87;95363.31;5091216;28;20201;-82
2022/03/24 05:07:40;;;;;;;37.33;18.77;;;;;;;7.82;45.56;95369.00;5091867;28;20193;-81
2022/03/24 05:10:09;;;;;;;38.83;17.60;;;;;;;8.03;45.22;95364.97;5090991;28;20209;-82
2022/03/24 05:12:39;;;;;;;36.90;18.90;;;;;;;8.34;45.01;95365.41;5091716;28;20225;-83
2022/03/24 05:15:10;;;;;;;32.57;16.40;;;;;;;8.73;44.79;95361.00;5091510;28;20280;-82
2022/03/24 05:17:37;;;;;;;33.13;17.00;;;;;;;9.16;44.50;95361.25;5091704;28;20182;-81
2022/03/24 05:20:04;;;;;;;38.63;17.20;;;;;;;9.67;44.16;95370.22;5091260;28;20537;-76
2022/03/24 05:22:32;;;;;;;28.93;17.03;;;;;;;10.20;44.07;95360.22;5071251;28;20662;-80
2022/03/24 05:24:58;;;;;;;31.37;15.10;;;;;;;10.77;43.63;95366.84;5070842;28;20194;-82
2022/03/24 05:27:25;;;;;;;33.83;16.67;;;;;;;11.38;42.97;95369.56;5071361;28;20201;-82
2022/03/24 05:29:52;;;;;;;32.33;16.97;;;;;;;11.99;42.41;95361.91;5077640;28;20182;-79
2022/03/24 05:32:20;;;;;;;32.10;17.37;;;;;;;12.65;41.58;95358.00;5091381;28;20189;-82
2022/03/24 05:34:48;;;;;;;13.57;7.43;;;;;;;13.49;66.88;95363.41;5091813;28;20200;-78
2022/03/24 05:37:15;;;;;;;18.70;11.43;;;;;;;14.31;58.04;95360.09;5089237;28;20182;-76
2022/03/24 05:39:42;;;;;;;21.07;12.10;;;;;;;15.02;52.64;95360.16;5086311;28;20186;-78
2022/03/24 05:42:09;;;;;;;25.10;12.60;;;;;;;15.66;48.53;95362.59;5089963;28;20194;-76
2022/03/24 05:44:37;;;;;;;20.33;13.73;;;;;;;16.33;44.95;95355.00;5091506;28;20193;-73
2022/03/24 05:47:04;;;;;;;22.60;13.70;;;;;;;16.94;42.09;95359.03;5090813;28;20292;-73
2022/03/24 05:49:32;;;;;;;27.77;15.10;;;;;;;17.56;39.91;95356.72;5091360;28;20185;-77
2022/03/24 05:51:59;;;;;;;25.40;16.53;;;;;;;18.21;38.12;95363.53;5090551;28;20185;-76
2022/03/24 05:54:26;;;;;;;24.63;15.33;;;;;;;18.78;36.51;95360.66;5090502;28;20224;-75
2022/03/24 05:56:53;;;;;;;26.37;16.07;;;;;;;19.39;35.02;95360.72;5090846;28;20199;-73
2022/03/24 05:59:20;;;;;;;24.97;14.73;;;;;;;19.97;33.90;95354.81;5090359;28;20563;-80
2022/03/24 06:01:47;;;;;;;23.10;13.70;;;;;;;20.52;33.06;95350.13;5090761;28;20571;-77
2022/03/24 06:04:15;;;;;;;24.57;13.80;;;;;;;21.12;31.84;95359.34;5088081;28;20190;-74
2022/03/24 06:06:45;;;;;;;22.90;13.90;;;;;;;21.56;31.02;95344.50;5089589;28;20194;-72
2022/03/24 06:09:11;;;;;;;21.77;14.30;;;;;;;22.21;30.17;95353.72;5089090;28;20225;-78
2022/03/24 06:11:39;;;;;;;24.93;14.23;;;;;;;22.73;29.39;95362.75;5090061;28;20216;-74
2022/03/24 06:14:10;;;;;;;21.50;14.18;;;;;;;23.25;28.74;95369.09;5089209;28;20577;-73
2022/03/24 06:16:37;;;;;;;26.40;15.07;;;;;;;23.76;28.26;95368.50;5090469;28;20201;-74
2022/03/24 06:19:04;;;;;;;29.20;14.05;;;;;;;24.23;27.53;95370.03;5089714;28;20174;-74
2022/03/24 06:21:31;;;;;;;26.88;14.38;;;;;;;24.73;27.01;95364.19;5089706;28;20193;-76
2022/03/24 06:23:59;;;;;;;24.55;13.68;;;;;;;25.18;26.42;95369.41;5089139;28;20223;-72
2022/03/24 06:26:26;;;;;;;22.35;14.45;;;;;;;25.62;25.86;95360.59;5089421;28;20201;-71
2022/03/24 06:28:53;;;;;;;26.15;14.32;;;;;;;26.05;25.48;95361.66;5088871;28;20177;-74
2022/03/24 06:31:20;;;;;;;23.13;14.48;;;;;;;26.44;25.11;95357.81;5089370;28;20225;-75
2022/03/24 06:33:49;;;;;;;14.35;7.95;;;;;;;26.76;28.78;95353.16;5088276;28;20305;-77
2022/03/24 06:36:16;;;;;;;13.75;7.53;;;;;;;26.91;31.21;95352.78;5088771;28;20763;-74
2022/03/24 06:38:43;;;;;;;12.82;8.65;;;;;;;27.00;31.37;95346.19;5089387;28;20197;-77
2022/03/24 06:41:14;;;;;;;15.75;9.27;;;;;;;27.10;28.58;95358.78;5088845;28;20679;-78
2022/03/24 06:43:42;;;;;;;28.58;13.68;;;;;;;27.12;23.27;95357.53;5089185;28;20201;-77
2022/03/24 06:46:09;;;;;;;23.52;11.32;;;;;;;26.99;25.33;95355.88;5085193;28;20275;-75
2022/03/24 06:48:36;;;;;;;17.70;9.65;;;;;;;27.04;27.34;95357.03;5087597;28;20319;-79
2022/03/24 06:51:04;;;;;;;16.65;10.43;;;;;;;27.11;27.97;95349.88;5086248;28;20193;-74
2022/03/24 06:53:31;;;;;;;16.88;10.25;;;;;;;27.23;27.78;95355.97;5086873;28;20218;-75
2022/03/24 06:55:58;;;;;;;19.67;11.20;;;;;;;27.33;27.17;95353.59;5086327;28;20247;-77
2022/03/24 06:58:26;;;;;;;17.52;11.05;;;;;;;27.39;27.35;95350.06;5086237;28;20654;-78
2022/03/24 07:00:53;;;;;;;21.95;11.18;;;;;;;27.50;26.98;95353.72;5085929;28;20200;-76
2022/03/24 07:03:20;;;;;;;22.95;10.90;;;;;;;27.63;27.04;95342.97;5085491;28;20196;-75
2022/03/24 07:05:47;;;;;;;16.90;10.52;;;;;;;27.59;26.89;95326.09;5085933;28;20668;-76
2022/03/24 07:08:14;;;;;;;16.42;9.80;;;;;;;27.82;26.59;95350.81;5086495;28;20279;-77
2022/03/24 07:10:41;;;;;;;18.38;11.63;;;;;;;27.89;26.37;95336.50;5086264;28;20648;-77
2022/03/24 07:13:07;;;;;;;20.27;10.88;;;;;;;27.99;25.99;95346.44;5086408;28;20313;-75
2022/03/24 07:15:36;;;;;;;18.63;10.75;;;;;;;28.10;25.94;95342.19;5085940;28;20194;-74
2022/03/24 07:18:03;;;;;;;20.33;11.57;;;;;;;28.14;25.59;95343.31;5085252;28;20263;-75
2022/03/24 07:20:30;;;;;;;20.92;11.98;;;;;;;28.19;25.27;95349.47;5086105;28;20197;-75
2022/03/24 07:23:00;;;;;;;22.77;11.80;;;;;;;28.27;25.57;95348.31;5086003;28;20248;-78
2022/03/24 07:25:28;;;;;;;17.42;10.88;;;;;;;28.35;25.19;95344.53;5083827;28;20181;-78
2022/03/24 07:27:54;;;;;;;15.15;10.13;;;;;;;28.42;25.35;95345.25;5085955;28;20214;-76
2022/03/24 07:30:21;;;;;;;14.23;10.15;;;;;;;28.47;25.18;95348.78;5086128;28;20177;-77
2022/03/24 07:32:52;;;;;;;16.95;10.73;;;;;;;28.53;24.94;95343.59;5085764;28;20212;-76
2022/03/24 07:35:19;;;;;;;15.73;10.52;;;;;;;28.57;24.84;95344.72;5084265;28;20914;-77
2022/03/24 07:37:47;;;;;;;26.23;11.23;;;;;;;28.61;24.21;95346.66;5085696;28;20193;-76
2022/03/24 07:40:18;;;;;;;20.67;11.38;;;;;;;28.65;24.35;95347.00;5085729;28;20198;-74
2022/03/24 07:42:45;;;;;;;20.60;11.55;;;;;;;28.68;22.84;95343.91;5085037;28;20284;-73
2022/03/24 07:45:12;;;;;;;21.60;13.15;;;;;;;28.67;23.53;95337.84;5085839;28;20194;-73
2022/03/24 07:48:07;;;;;;;20.25;11.93;;;;;;;28.65;23.42;95342.53;5087443;28;20704;-76
2022/03/24 07:50:34;;;;;;;23.45;12.07;;;;;;;28.65;23.35;95341.72;5089051;28;20212;-79
2022/03/24 07:53:18;;;;;;;18.70;12.07;;;;;;;28.70;22.92;95341.81;5089807;28;20190;-74
2022/03/24 07:55:47;;;;;;;25.05;12.57;;;;;;;28.89;22.44;95345.06;5089700;28;20660;-75
2022/03/24 07:58:17;;;;;;;23.60;13.45;;;;;;;29.18;21.62;95340.59;5089560;28;20198;-74
2022/03/24 08:00:44;;;;;;;23.58;13.65;;;;;;;29.42;21.45;95339.41;5092104;28;20672;-78
2022/03/24 08:03:14;;;;;;;26.40;14.82;;;;;;;29.67;21.27;95340.88;5090558;28;20663;-76
2022/03/24 08:05:41;;;;;;;20.70;12.30;;;;;;;29.90;20.93;95342.50;5088785;28;20198;-80
2022/03/24 08:08:09;;;;;;;26.70;14.13;;;;;;;30.09;20.72;95333.25;5089484;28;20206;-75
2022/03/24 08:10:36;;;;;;;19.15;13.70;;;;;;;30.29;20.70;95338.03;5090046;28;20670;-75
2022/03/24 08:13:04;;;;;;;25.20;14.40;;;;;;;30.42;20.24;95329.75;5089586;28;20206;-72
2022/03/24 08:15:30;;;;;;;28.27;14.32;;;;;;;30.56;20.50;95332.78;5090124;28;20268;-77
2022/03/24 08:17:57;;;;;;;26.92;14.98;;;;;;;30.64;20.52;95328.91;5089016;28;20193;-73
2022/03/24 08:20:25;;;;;;;30.17;13.90;;;;;;;30.72;20.27;95326.66;5091784;28;20201;-78
2022/03/24 08:22:53;;;;;;;22.10;14.07;;;;;;;30.81;20.00;95321.72;5091775;28;20734;-78
2022/03/24 08:25:20;;;;;;;18.65;13.38;;;;;;;30.88;19.85;95324.19;5091981;28;20201;-77
2022/03/24 08:27:47;;;;;;;20.75;12.38;;;;;;;30.92;20.12;95320.78;5091886;28;20201;-78
2022/03/24 08:30:15;;;;;;;21.33;11.43;;;;;;;30.96;20.06;95321.88;5092024;28;20271;-76
2022/03/24 08:32:42;;;;;;;17.83;10.50;;;;;;;30.99;19.56;95317.94;5089678;28;20186;-78
2022/03/24 08:35:10;;;;;;;16.15;10.23;;;;;;;31.02;19.75;95312.16;5089295;28;20584;-79
2022/03/24 08:37:38;;;;;;;18.27;9.55;;;;;;;31.05;19.72;95314.31;5089633;28;20190;-76
2022/03/24 08:40:06;;;;;;;11.57;8.93;;;;;;;31.07;19.49;95316.69;5089058;28;20201;-77
2022/03/24 08:42:41;;;;;;;15.27;8.82;;;;;;;31.02;19.66;95309.50;5090505;28;20212;-74
2022/03/24 08:45:10;;;;;;;13.40;7.13;;;;;;;31.01;19.96;95305.28;5091839;28;20236;-73
2022/03/24 08:47:37;;;;;;;13.13;7.82;;;;;;;30.96;20.05;95305.25;5091138;28;20197;-76
2022/03/24 08:50:05;;;;;;;9.93;7.78;;;;;;;30.90;20.10;95300.94;5091172;28;20196;-75
2022/03/24 08:52:32;;;;;;;11.65;6.68;;;;;;;30.81;19.90;95303.25;5092080;28;20190;-74
2022/03/24 08:55:00;;;;;;;10.32;6.60;;;;;;;30.73;19.76;95303.69;5091038;28;20672;-77
2022/03/24 08:57:27;;;;;;;13.52;6.72;;;;;;;30.62;19.65;95304.63;5091065;28;20197;-77
2022/03/24 08:59:55;;;;;;;11.00;6.10;;;;;;;30.50;19.92;95302.09;5089907;28;20235;-75
2022/03/24 09:02:22;;;;;;;12.25;6.25;;;;;;;30.39;19.89;95301.19;5091187;28;20193;-75
2022/03/24 09:04:49;;;;;;;11.50;6.30;;;;;;;30.27;19.80;95295.25;5091518;28;20289;-78
2022/03/24 09:07:17;;;;;;;10.77;5.90;;;;;;;30.12;19.82;95295.84;5089412;28;20205;-73
2022/03/24 09:09:44;;;;;;;7.95;5.50;;;;;;;30.04;19.71;95298.91;5091150;28;20293;-76
2022/03/24 09:12:12;;;;;;;8.45;5.88;;;;;;;29.89;19.46;95291.59;5091014;28;20187;-74
2022/03/24 09:14:40;;;;;;;10.13;6.63;;;;;;;29.74;19.54;95294.81;5090617;28;20220;-75
2022/03/24 09:17:08;;;;;;;9.60;5.47;;;;;;;29.60;19.96;95295.41;5090695;28;20189;-75
2022/03/24 09:19:35;;;;;;;12.02;6.32;;;;;;;29.47;19.87;95296.50;5090121;28;20602;-73
2022/03/24 09:22:03;;;;;;;9.70;4.93;;;;;;;29.33;19.78;95288.13;5090767;28;20200;-74
2022/03/24 09:24:30;;;;;;;10.43;4.70;;;;;;;29.17;20.03;95289.72;5090241;28;20232;-73
2022/03/24 09:26:57;;;;;;;8.75;5.57;;;;;;;29.03;19.79;95285.81;5090489;28;20185;-75
2022/03/24 09:29:26;;;;;;;7.80;5.63;;;;;;;28.88;19.97;95282.88;5089430;28;20657;-75
2022/03/24 09:31:52;;;;;;;9.27;5.28;;;;;;;28.71;19.91;95273.16;5089420;28;20188;-76
2022/03/24 09:34:19;;;;;;;9.65;5.25;;;;;;;28.55;19.94;95263.38;5089579;28;20209;-73
2022/03/24 09:36:46;;;;;;;8.65;5.25;;;;;;;28.37;20.33;95271.44;5090392;28;20553;-74
2022/03/24 09:39:14;;;;;;;8.52;5.10;;;;;;;28.21;20.02;95265.88;5090010;28;20193;-74
2022/03/24 09:41:43;;;;;;;7.30;4.97;;;;;;;28.05;20.24;95266.59;5090219;28;20192;-74
2022/03/24 09:44:10;;;;;;;7.05;5.07;;;;;;;27.87;20.08;95264.16;5088047;28;20624;-74
2022/03/24 09:46:39;;;;;;;7.55;5.47;;;;;;;27.68;20.17;95268.72;5093572;28;20257;-75
2022/03/24 09:49:11;;;;;;;7.40;4.82;;;;;;;27.49;20.28;95260.16;5095539;28;20272;-77
2022/03/24 09:51:40;;;;;;;8.82;4.90;;;;;;;27.32;20.15;95254.78;5091144;28;20920;-77
2022/03/24 09:54:10;;;;;;;8.68;5.18;;;;;;;27.13;20.44;95253.31;5091115;28;20262;-76
2022/03/24 09:56:37;;;;;;;9.85;5.90;;;;;;;26.91;20.62;95238.06;5090267;28;20269;-76
2022/03/24 09:59:04;;;;;;;6.35;5.40;;;;;;;26.77;20.49;95244.56;5090730;28;20557;-75
2022/03/24 10:01:31;;;;;;;9.00;5.15;;;;;;;26.60;20.44;95244.38;5090985;28;20182;-77
2022/03/24 10:04:10;;;;;;;8.30;5.68;;;;;;;26.41;20.46;95230.47;5091325;28;20205;-76
2022/03/24 10:06:40;;;;;;;7.63;4.97;;;;;;;26.22;20.77;95231.56;5090763;28;20196;-78
2022/03/24 10:09:07;;;;;;;6.88;4.70;;;;;;;26.06;20.84;95232.16;5090908;28;20197;-75
2022/03/24 10:11:36;;;;;;;7.25;6.00;;;;;;;25.92;20.71;95226.28;5090337;28;20659;-75
2022/03/24 10:14:05;;;;;;;6.22;5.07;;;;;;;25.75;20.69;95228.69;5090800;28;20217;-77
2022/03/24 10:16:43;;;;;;;9.85;5.53;;;;;;;25.62;20.59;95229.63;5092961;28;20189;-80
2022/03/24 10:19:14;;;;;;;7.75;5.57;;;;;;;25.49;21.04;95219.28;5096654;28;20583;-76
2022/03/24 10:21:42;;;;;;;6.38;5.00;;;;;;;25.36;20.72;95214.19;5094166;28;20710;-73
2022/03/24 10:24:12;;;;;;;8.65;5.65;;;;;;;25.24;20.89;95217.50;5094875;28;20237;-76
2022/03/24 10:26:47;;;;;;;9.20;5.60;;;;;;;25.14;20.84;95216.41;5090719;28;20213;-78
2022/03/24 10:29:16;;;;;;;6.72;5.30;;;;;;;25.03;20.80;95207.41;5090688;28;20196;-79
2022/03/24 10:31:43;;;;;;;7.45;5.10;;;;;;;24.93;20.94;95201.84;5090337;28;20198;-77
2022/03/24 10:34:12;;;;;;;8.90;4.82;;;;;;;24.84;20.89;95197.91;5090622;28;20225;-76
2022/03/24 10:36:42;;;;;;;11.75;6.13;;;;;;;24.73;21.19;95189.72;5090177;28;20185;-77
2022/03/24 10:39:09;;;;;;;10.45;5.38;;;;;;;24.65;21.18;95189.97;5090232;28;20247;-77
2022/03/24 10:41:37;;;;;;;7.65;5.22;;;;;;;24.55;20.96;95187.06;5090177;28;20195;-78
2022/03/24 10:44:09;;;;;;;8.10;5.07;;;;;;;24.46;21.13;95177.88;5090302;28;20618;-78
2022/03/24 10:46:38;;;;;;;7.70;5.32;;;;;;;24.39;21.01;95182.34;5088922;28;20242;-76
2022/03/24 10:49:24;;;;;;;9.57;4.72;;;;;;;24.31;21.14;95170.31;5089741;28;20194;-79
2022/03/24 10:51:52;;;;;;;7.95;5.32;;;;;;;24.24;21.06;95169.53;5089935;28;20185;-77
2022/03/24 10:54:27;;;;;;;7.07;4.75;;;;;;;24.17;21.08;95169.56;5090581;28;20300;-78
2022/03/24 10:57:03;;;;;;;6.30;4.55;;;;;;;24.12;21.23;95160.75;5089927;28;20185;-78
2022/03/24 10:59:34;;;;;;;7.97;5.28;;;;;;;24.06;21.10;95162.41;5089906;28;20193;-76
2022/03/24 11:02:01;;;;;;;7.80;4.43;;;;;;;24.01;21.39;95162.25;5089951;28;20189;-77
2022/03/24 11:04:29;;;;;;;6.50;4.75;;;;;;;23.95;21.41;95161.25;5090288;28;20196;-75
2022/03/24 11:06:56;;;;;;;7.63;5.25;;;;;;;23.89;21.31;95158.69;5089891;28;20181;-78
2022/03/24 11:09:25;;;;;;;8.57;5.50;;;;;;;23.82;21.37;95142.22;5090526;28;20178;-75
2022/03/24 11:12:29;;;;;;;10.00;5.25;;;;;;;23.78;21.59;95147.88;5087994;28;20205;-79
2022/03/24 11:14:57;;;;;;;9.63;6.30;;;;;;;23.72;21.33;95147.91;5090088;28;20229;-79
2022/03/24 11:17:26;;;;;;;13.05;6.63;;;;;;;23.68;21.51;95136.28;5090004;28;20186;-78
2022/03/24 11:20:06;;;;;;;11.70;5.78;;;;;;;23.61;21.35;95131.03;5089833;28;20656;-77
2022/03/24 11:22:38;;;;;;;9.88;6.70;;;;;;;23.58;21.44;95131.47;5091478;28;20314;-78
2022/03/24 11:25:06;;;;;;;10.18;6.57;;;;;;;23.55;21.65;95126.66;5093821;28;20564;-76
2022/03/24 11:27:33;;;;;;;9.40;6.43;;;;;;;23.52;21.56;95124.47;5093784;28;20215;-77
2022/03/24 11:30:02;;;;;;;9.10;6.43;;;;;;;23.51;21.62;95117.63;5093877;28;20576;-75